< < Back
Terminal Aerodrome Forecast


Current Version              Previous Versions:   1  2  3  4  5  6  7  8  9  

Terminal Aerodrome Forecast

990
FTUS42 KILM 242300
TAFILM
TAF
KILM 242332Z 2500/2524 VRB04KT P6SM SCT040 BKN120
     FM250300 24004KT 5SM SHRA VCTS SCT015 BKN040CB
     FM250600 26003KT P6SM VCSH SCT050 BKN100
     FM251300 34005KT P6SM SCT050 SCT100
     FM251800 15006KT P6SM VCTS BKN050CB=

Latest METAR

877
SAUS70 KWBC 250000 RRN
MTRILM
METAR KILM 242353Z AUTO 06004KT 10SM FEW055 FEW070 24/23 A2989 RMK AO2
RAE2258 TSE2258 SLP122 P0000 60041 T02440228 10344 20233
53020


USA.gov is the U.S. government's official web portal to all federal, state and local government web resources and services.